Airport details for: EBBR (Belgium)

Metar

EBBR 231620Z 32010KT CAVOK 20/09 Q1022 NOSIG

General details

ICAO: EBBR
IATA: BRU
Name (city): Brussels National
Major:
Country: Belgium
vACC: vACC Belux
Description:

Brussels Airport (also called Brussel Nationaal/Bruxelles-National/Brussel-Zaventem (Brussels National) is an international airport 6 NM (11 km; 6.9 mi) northeast of Brussels, Belgium. The airport's name is somewhat misleading as it is not located in Brussels, but partially in Zaventem and partially in the Diegem area of Machelen, both located in the Flemish Region of Belgium. In 2012, almost 19 million passengers arrived or departed at Brussels airport, making it the 24th busiest airport of Europe. It is home to around 260 companies, together directly employing 20,000 people.

Scenery links:
FS9 scenery: Download
FSX/P3D scenery: Download
XP scenery: Download
Elevation: 184 ft.
Transition altitude: 4500 ft.
MSA: 11900 ft.
Latitude: 50.901389
Longitude: 4.484445
EBBR Charts
EBBR Notams
EBBR Online stations

Runways

Number Course Length Elevation Lat Lon ILS ILS freq ILS FAC GP
01 14° 9800ft / 2987 m 183ft 50.887331 4.491578 109.9 14° 3.0°
07L 65° 11936ft / 3638 m 129ft 50.900034 4.459564 - - 3.0°
07R 70° 10535ft / 3211 m 175ft 50.889414 4.482056 - - 3.0°
19 194° 9800ft / 2987 m 113ft 50.911011 4.501239 111.15 194° 3.0°
25L 250° 10535ft / 3211 m 159ft 50.898942 4.5233 110.35 250° 3.0°
25R 245° 11936ft / 3638 m 111ft 50.911542 4.499386 108.9 245° 3.0°